Olmsted Township, Ohio
Current Conditions -  °F | °C
As of 10:51 AM on Friday 21 Nov 2014 (Local Time) from KCLE Reporting Station
Light Snow Light Snow  
Wind Chill: 11°   Ceiling: 3700
Heat Index: 21°   Visibility: 8mi
Dew Point: 14°   Wind: 9mph
Humidity: 74%   Direction: 230°SW
Pressure: 30.5"   Gusts: NA
Location:  41.374°N, 81.9211°W
Report Text: KCLE 211551Z 23008KT 8SM -SN OVC037 M06/M10 A3050 RMK AO2 SNB12 SLP339 P0000 T10611100 $
Loading
Personal Weather Stations






























Interactive Weather Map New forecast layout! Learn more

10-Day Weather Forecast

Advertisements
Track Severe Weather on mobile